Time;durP1;ratioP1;P1;durP2;ratioP2;P2;SDS_P1;SDS_P2;PMS_P1;PMS_P2;Temp;Humidity;BMP_temperature;BMP_pressure;BME280_temperature;BME280_humidity;BME280_pressure;Samples;Min_cycle;Max_cycle;Signal;HPM_P1;HPM_P2
2023/05/04 00:00:10;;;;;;;;;;;;;;;6.94;75.59;101322.44;5028561;28;19999;-73
2023/05/04 00:03:15;;;;;;;;;;;;;;;7.03;75.83;101317.00;5027788;28;19924;-73
2023/05/04 00:06:17;;;;;;;;;;;;;;;7.22;74.76;101315.66;5028888;28;19932;-73
2023/05/04 00:09:20;;;;;;;;;;;;;;;7.05;75.10;101317.84;5029327;28;19923;-73
2023/05/04 00:12:23;;;;;;;;;;;;;;;6.86;75.42;101313.94;5028305;28;19924;-74
2023/05/04 00:15:28;;;;;;;;;;;;;;;6.74;76.28;101315.97;5031569;28;20012;-73
2023/05/04 00:18:30;;;;;;;;;;;;;;;6.74;76.31;101320.31;5031670;28;19928;-74
2023/05/04 00:21:34;;;;;;;;;;;;;;;6.71;76.72;101318.66;5032700;28;19975;-73
2023/05/04 00:24:37;;;;;;;;;;;;;;;6.60;76.74;101315.44;5032498;28;19928;-73
2023/05/04 00:27:40;;;;;;;;;;;;;;;6.57;77.30;101312.91;5019769;28;19924;-73
2023/05/04 00:30:43;;;;;;;;;;;;;;;6.54;77.29;101318.19;5018785;28;20459;-73
2023/05/04 00:33:46;;;;;;;;;;;;;;;6.65;76.77;101303.19;5019544;28;20532;-73
2023/05/04 00:36:49;;;;;;;;;;;;;;;6.57;76.47;101314.66;5031145;28;19928;-73
2023/05/04 00:39:53;;;;;;;;;;;;;;;6.66;76.10;101304.03;5018885;28;19925;-73
2023/05/04 00:42:56;;;;;;;;;;;;;;;6.56;76.63;101297.34;5019108;28;19923;-73
2023/05/04 00:45:59;;;;;;;;;;;;;;;6.54;76.80;101305.19;5031049;28;19978;-73
2023/05/04 00:49:03;;;;;;;;;;;;;;;6.39;77.14;101301.19;5032225;28;20402;-73
2023/05/04 00:52:07;;;;;;;;;;;;;;;6.33;77.66;101311.72;5020252;28;20016;-73
2023/05/04 00:55:10;;;;;;;;;;;;;;;6.28;77.53;101297.97;5019276;28;19923;-74
2023/05/04 00:58:13;;;;;;;;;;;;;;;6.23;77.53;101295.50;5031352;28;19935;-74
2023/05/04 01:01:16;;;;;;;;;;;;;;;6.15;77.25;101294.78;5031116;28;19982;-73
2023/05/04 01:04:19;;;;;;;;;;;;;;;6.17;77.54;101295.63;5031434;28;19974;-73
2023/05/04 01:07:25;;;;;;;;;;;;;;;6.21;77.37;101292.06;5019509;28;19928;-73
2023/05/04 01:10:33;;;;;;;;;;;;;;;6.15;78.05;101294.78;5031793;28;20308;-74
2023/05/04 01:13:37;;;;;;;;;;;;;;;6.16;77.95;101291.31;5030910;28;19924;-73
2023/05/04 01:16:40;;;;;;;;;;;;;;;6.13;77.79;101299.19;5031009;28;19923;-74
2023/05/04 01:19:44;;;;;;;;;;;;;;;6.05;77.89;101295.88;5031134;28;20457;-74
2023/05/04 01:22:47;;;;;;;;;;;;;;;6.13;77.62;101291.38;5031705;28;20292;-74
2023/05/04 01:25:51;;;;;;;;;;;;;;;6.13;77.34;101291.38;5030884;28;19932;-74
2023/05/04 01:29:07;;;;;;;;;;;;;;;6.07;77.45;101288.06;5030240;28;20299;-74
2023/05/04 01:32:13;;;;;;;;;;;;;;;6.10;77.59;101283.66;5030639;28;19974;-74
2023/05/04 01:35:17;;;;;;;;;;;;;;;5.94;77.54;101282.28;5019024;28;19923;-74
2023/05/04 01:38:22;;;;;;;;;;;;;;;5.93;77.63;101284.00;5017642;28;19932;-74
2023/05/04 01:41:26;;;;;;;;;;;;;;;5.96;77.26;101283.09;5030449;28;19924;-74
2023/05/04 01:44:29;;;;;;;;;;;;;;;6.00;77.08;101287.34;5018245;28;19977;-74
2023/05/04 01:47:33;;;;;;;;;;;;;;;5.73;77.78;101288.72;5029722;28;19924;-74
2023/05/04 01:50:36;;;;;;;;;;;;;;;5.61;78.14;101287.22;5017892;28;19938;-74
2023/05/04 01:53:39;;;;;;;;;;;;;;;5.76;77.80;101279.13;5017272;28;19923;-73
2023/05/04 01:56:43;;;;;;;;;;;;;;;5.92;76.54;101276.22;5029438;28;19930;-74
2023/05/04 01:59:46;;;;;;;;;;;;;;;5.70;77.78;101286.19;5017129;28;19963;-73
2023/05/04 02:02:48;;;;;;;;;;;;;;;5.60;77.77;101286.38;5018019;28;20087;-73
2023/05/04 02:05:55;;;;;;;;;;;;;;;5.48;78.01;101293.53;5018234;28;19928;-73
2023/05/04 02:08:59;;;;;;;;;;;;;;;5.49;78.35;101284.88;5018803;28;19980;-74
2023/05/04 02:12:03;;;;;;;;;;;;;;;5.66;77.29;101289.75;5030244;28;19928;-74
2023/05/04 02:15:06;;;;;;;;;;;;;;;5.79;75.95;101281.66;5017949;28;19924;-73
2023/05/04 02:18:10;;;;;;;;;;;;;;;5.59;76.72;101286.41;5030024;28;19924;-73
2023/05/04 02:21:13;;;;;;;;;;;;;;;5.42;77.20;101283.28;5017154;28;19924;-73
2023/05/04 02:24:20;;;;;;;;;;;;;;;5.50;77.31;101278.81;5018534;28;19929;-73
2023/05/04 02:27:23;;;;;;;;;;;;;;;5.71;76.94;101275.78;5030487;28;19970;-73
2023/05/04 02:30:26;;;;;;;;;;;;;;;5.90;75.75;101270.22;5017806;28;19923;-73
2023/05/04 02:33:29;;;;;;;;;;;;;;;6.03;74.89;101264.78;5017573;28;19970;-73
2023/05/04 02:36:32;;;;;;;;;;;;;;;5.66;76.18;101262.06;5016787;28;20034;-73
2023/05/04 02:39:35;;;;;;;;;;;;;;;5.46;77.33;101270.22;5029724;28;19924;-74
2023/05/04 02:42:39;;;;;;;;;;;;;;;5.55;77.68;101276.97;5029708;28;19942;-74
2023/05/04 02:45:42;;;;;;;;;;;;;;;5.47;77.62;101273.69;5029645;28;20312;-74
2023/05/04 02:48:45;;;;;;;;;;;;;;;5.45;77.64;101270.25;4998526;28;19924;-73
2023/05/04 02:51:48;;;;;;;;;;;;;;;5.31;77.79;101276.56;4998479;28;20008;-73
2023/05/04 02:54:51;;;;;;;;;;;;;;;5.44;77.22;101272.00;5009925;28;19924;-73
2023/05/04 02:57:54;;;;;;;;;;;;;;;5.38;77.14;101260.88;4998257;28;19986;-74
2023/05/04 03:00:58;;;;;;;;;;;;;;;5.28;77.88;101271.41;5009689;28;19928;-73
2023/05/04 03:04:02;;;;;;;;;;;;;;;5.34;78.01;101267.88;4998472;28;20430;-73
2023/05/04 03:07:06;;;;;;;;;;;;;;;5.17;78.82;101264.72;5010139;28;19925;-73
2023/05/04 03:10:10;;;;;;;;;;;;;;;5.22;79.03;101261.16;5006393;28;19947;-73
2023/05/04 03:13:13;;;;;;;;;;;;;;;5.23;78.81;101262.88;5028016;28;20288;-72
2023/05/04 03:16:16;;;;;;;;;;;;;;;5.36;78.55;101272.16;5029566;28;19924;-72
2023/05/04 03:19:20;;;;;;;;;;;;;;;5.25;78.48;101271.47;5006758;28;20391;-73
2023/05/04 03:22:24;;;;;;;;;;;;;;;5.22;78.90;101270.69;5017816;28;19962;-73
2023/05/04 03:25:27;;;;;;;;;;;;;;;5.23;78.57;101273.25;5029967;28;19928;-72
2023/05/04 03:28:30;;;;;;;;;;;;;;;5.24;79.15;101267.19;5030094;28;20015;-73
2023/05/04 03:31:34;;;;;;;;;;;;;;;5.40;78.18;101270.34;5017979;28;19931;-73
2023/05/04 03:34:37;;;;;;;;;;;;;;;5.42;78.17;101265.13;5029965;28;19962;-73
2023/05/04 03:37:42;;;;;;;;;;;;;;;5.45;78.08;101267.66;5016942;28;20006;-73
2023/05/04 03:40:45;;;;;;;;;;;;;;;5.43;77.91;101272.03;5018029;28;19928;-73
2023/05/04 03:43:50;;;;;;;;;;;;;;;5.29;78.08;101270.53;5029826;28;19924;-73
2023/05/04 03:46:53;;;;;;;;;;;;;;;5.31;77.96;101275.69;5017784;28;19970;-73
2023/05/04 03:49:56;;;;;;;;;;;;;;;5.20;78.76;101273.31;5021243;28;20013;-73
2023/05/04 03:53:00;;;;;;;;;;;;;;;5.20;78.88;101277.63;5021008;28;20304;-74
2023/05/04 03:56:04;;;;;;;;;;;;;;;5.07;79.23;101271.78;5021197;28;19979;-73
2023/05/04 03:59:08;;;;;;;;;;;;;;;5.04;79.43;101267.56;5020919;28;20384;-73
2023/05/04 04:02:11;;;;;;;;;;;;;;;4.94;79.96;101271.16;5033171;28;19927;-72
2023/05/04 04:05:14;;;;;;;;;;;;;;;5.09;79.46;101264.84;5020784;28;19928;-72
2023/05/04 04:08:18;;;;;;;;;;;;;;;5.06;80.04;101270.09;5020535;28;19924;-70
2023/05/04 04:11:22;;;;;;;;;;;;;;;5.09;79.34;101275.22;5032946;28;19924;-73
2023/05/04 04:14:27;;;;;;;;;;;;;;;5.03;79.50;101270.16;5020818;28;20396;-70
2023/05/04 04:17:30;;;;;;;;;;;;;;;5.04;79.11;101266.66;5032671;28;20511;-72
2023/05/04 04:20:33;;;;;;;;;;;;;;;5.04;79.45;101266.66;5032283;28;20437;-72
2023/05/04 04:23:36;;;;;;;;;;;;;;;5.12;79.01;101260.47;5032559;28;20012;-73
2023/05/04 04:26:40;;;;;;;;;;;;;;;5.02;79.63;101263.25;5020519;28;20346;-70
2023/05/04 04:29:43;;;;;;;;;;;;;;;4.87;79.77;101261.78;5032028;28;19924;-69
2023/05/04 04:37:14;;;;;;;;;;;;;;;5.10;79.35;101245.81;5032149;28;19974;-69
2023/05/04 04:40:58;;;;;;;;;;;;;;;5.18;79.41;101249.16;5032683;28;20379;-70
2023/05/04 04:44:36;;;;;;;;;;;;;;;5.25;78.67;101250.72;5024107;28;19944;-69
2023/05/04 04:53:08;;;;;;;;;;;;;;;5.23;78.40;101265.47;5010279;28;19950;-71
2023/05/04 04:56:11;;;;;;;;;;;;;;;5.20;79.35;101262.06;5008553;28;20033;-70
2023/05/04 04:59:14;;;;;;;;;;;;;;;5.22;79.51;101261.16;5009706;28;19966;-71
2023/05/04 05:02:19;;;;;;;;;;;;;;;5.20;79.92;101257.75;5010244;28;19983;-71
2023/05/04 05:05:22;;;;;;;;;;;;;;;5.27;80.22;101261.94;5009324;28;19932;-70
2023/05/04 05:08:26;;;;;;;;;;;;;;;5.24;79.99;101259.41;5010143;28;19925;-71
2023/05/04 05:11:29;;;;;;;;;;;;;;;5.23;79.70;101252.53;5009206;28;19947;-70
2023/05/04 05:14:36;;;;;;;;;;;;;;;5.27;80.11;101258.50;5010485;28;20021;-70
2023/05/04 05:17:40;;;;;;;;;;;;;;;5.38;80.21;101256.53;5017169;28;19970;-71
2023/05/04 05:20:43;;;;;;;;;;;;;;;5.44;79.79;101260.75;5031976;28;20021;-71
2023/05/04 05:23:46;;;;;;;;;;;;;;;5.36;80.19;101258.31;5031715;28;19928;-71
2023/05/04 05:26:51;;;;;;;;;;;;;;;5.35;80.68;101265.22;5031885;28;20058;-71
2023/05/04 05:29:54;;;;;;;;;;;;;;;5.48;80.05;101263.25;5031695;28;19931;-70
2023/05/04 05:32:57;;;;;;;;;;;;;;;5.49;79.67;101261.53;5031787;28;19924;-71
2023/05/04 05:36:00;;;;;;;;;;;;;;;5.43;79.84;101262.50;5031698;28;20300;-70
2023/05/04 05:39:03;;;;;;;;;;;;;;;5.53;80.07;101266.63;5031617;28;19961;-71
2023/05/04 05:42:06;;;;;;;;;;;;;;;5.69;79.53;101267.19;5031583;28;19972;-71
2023/05/04 05:45:09;;;;;;;;;;;;;;;5.81;79.31;101268.69;5030383;28;20021;-70
2023/05/04 05:48:12;;;;;;;;;;;;;;;5.85;78.89;101266.88;5030396;28;20020;-71
2023/05/04 05:51:15;;;;;;;;;;;;;;;5.89;78.85;101264.16;5030771;28;19924;-71
2023/05/04 05:54:20;;;;;;;;;;;;;;;6.02;78.45;101267.38;5030438;28;20330;-71
2023/05/04 05:57:23;;;;;;;;;;;;;;;6.04;78.39;101258.69;5030814;28;19924;-73
2023/05/04 06:00:26;;;;;;;;;;;;;;;6.14;77.94;101256.75;5031192;28;19974;-72
2023/05/04 06:03:29;;;;;;;;;;;;;;;6.34;77.88;101247.63;5031286;28;19946;-72
2023/05/04 06:06:32;;;;;;;;;;;;;;;6.51;77.51;101253.31;5031205;28;20425;-72
2023/05/04 06:09:35;;;;;;;;;;;;;;;6.63;77.22;101255.59;5030828;28;19923;-72
2023/05/04 06:12:40;;;;;;;;;;;;;;;6.79;76.99;101257.81;5030450;28;20144;-73
2023/05/04 06:15:50;;;;;;;;;;;;;;;6.79;77.78;101250.88;5031142;28;19923;-72
2023/05/04 06:18:53;;;;;;;;;;;;;;;6.86;77.13;101248.97;5031075;28;19924;-72
2023/05/04 06:21:56;;;;;;;;;;;;;;;7.01;77.10;101243.38;5030960;28;19962;-71
2023/05/04 06:24:59;;;;;;;;;;;;;;;7.02;77.02;101250.31;5030783;28;19967;-72
2023/05/04 06:28:02;;;;;;;;;;;;;;;7.19;76.97;101244.66;5029836;28;19970;-71
2023/05/04 06:31:05;;;;;;;;;;;;;;;7.39;76.67;101241.50;5030250;28;19924;-72
2023/05/04 06:34:08;;;;;;;;;;;;;;;7.60;77.41;101233.09;5029828;28;19924;-72
2023/05/04 06:37:12;;;;;;;;;;;;;;;7.86;76.99;101232.34;5030125;28;19924;-72
2023/05/04 06:40:15;;;;;;;;;;;;;;;8.12;75.83;101218.53;5030196;28;19970;-71
2023/05/04 06:43:18;;;;;;;;;;;;;;;8.26;75.22;101225.91;5030105;28;20006;-71
2023/05/04 06:46:21;;;;;;;;;;;;;;;8.41;74.00;101219.38;5030253;28;19928;-84
2023/05/04 06:49:25;;;;;;;;;;;;;;;8.70;73.88;101208.00;5030608;28;19962;-79
2023/05/04 06:52:28;;;;;;;;;;;;;;;8.97;72.55;101216.66;5030543;28;20427;-79
2023/05/04 06:55:31;;;;;;;;;;;;;;;9.19;71.82;101213.28;5030524;28;19928;-79
2023/05/04 06:58:34;;;;;;;;;;;;;;;9.37;70.80;101204.78;5030468;28;20315;-78
2023/05/04 07:01:37;;;;;;;;;;;;;;;9.53;69.03;101199.84;5030439;28;20338;-80
2023/05/04 07:04:40;;;;;;;;;;;;;;;9.69;68.82;101193.16;5030339;28;19981;-80
2023/05/04 07:07:43;;;;;;;;;;;;;;;9.87;68.24;101191.59;5030639;28;19986;-80
2023/05/04 07:10:46;;;;;;;;;;;;;;;9.98;67.65;101192.03;5030359;28;19971;-80
2023/05/04 07:13:49;;;;;;;;;;;;;;;10.09;67.04;101196.00;5018121;28;19969;-78
2023/05/04 07:16:53;;;;;;;;;;;;;;;10.23;66.82;101193.69;5030217;28;19928;-79
2023/05/04 07:19:55;;;;;;;;;;;;;;;10.32;65.89;101185.50;5030348;28;20384;-79
2023/05/04 07:22:58;;;;;;;;;;;;;;;10.42;66.97;101178.13;5032809;28;19924;-75
2023/05/04 07:26:03;;;;;;;;;;;;;;;10.47;66.08;101178.81;5033613;28;19981;-74
2023/05/04 07:29:06;;;;;;;;;;;;;;;10.62;65.88;101180.75;5021387;28;19924;-77
2023/05/04 07:32:11;;;;;;;;;;;;;;;10.77;64.82;101181.88;5033931;28;19923;-80
2023/05/04 07:35:14;;;;;;;;;;;;;;;10.85;65.05;101174.56;5033621;28;19959;-77
2023/05/04 07:38:17;;;;;;;;;;;;;;;11.01;65.29;101176.50;5033462;28;19923;-76
2023/05/04 07:41:20;;;;;;;;;;;;;;;11.08;63.83;101170.09;5033455;28;19931;-79
2023/05/04 07:44:23;;;;;;;;;;;;;;;11.23;65.29;101172.03;5033586;28;19928;-80
2023/05/04 07:47:26;;;;;;;;;;;;;;;11.28;63.29;101166.59;5033435;28;20012;-76
2023/05/04 07:50:29;;;;;;;;;;;;;;;11.39;64.06;101172.19;5021111;28;19924;-77
2023/05/04 07:53:32;;;;;;;;;;;;;;;11.44;63.84;101175.44;5033341;28;19965;-77
2023/05/04 07:56:35;;;;;;;;;;;;;;;11.57;63.34;101165.25;5033308;28;19924;-77
2023/05/04 07:59:38;;;;;;;;;;;;;;;11.64;63.87;101154.41;5033277;28;19944;-76
2023/05/04 08:02:40;;;;;;;;;;;;;;;11.77;64.05;101152.09;5033217;28;19977;-77
2023/05/04 08:05:43;;;;;;;;;;;;;;;11.88;63.60;101146.38;5033091;28;19975;-75
2023/05/04 08:08:48;;;;;;;;;;;;;;;11.98;63.57;101141.53;5031992;28;19944;-76
2023/05/04 08:11:52;;;;;;;;;;;;;;;12.13;62.58;101139.97;5031844;28;19976;-80
2023/05/04 08:14:55;;;;;;;;;;;;;;;12.29;62.34;101133.88;5032918;28;20386;-76
2023/05/04 08:17:58;;;;;;;;;;;;;;;12.33;62.30;101130.16;5031631;28;19982;-76
2023/05/04 08:21:00;;;;;;;;;;;;;;;12.68;62.06;101126.69;5031442;28;19962;-76
2023/05/04 08:24:03;;;;;;;;;;;;;;;12.76;61.52;101120.13;5031352;28;19939;-77
2023/05/04 08:27:06;;;;;;;;;;;;;;;12.93;60.78;101121.88;5032106;28;19924;-77
2023/05/04 08:30:09;;;;;;;;;;;;;;;12.94;61.36;101117.47;5032137;28;20446;-76
2023/05/04 08:33:12;;;;;;;;;;;;;;;12.97;61.01;101114.66;5031835;28;19935;-77
2023/05/04 08:36:15;;;;;;;;;;;;;;;13.10;61.12;101099.13;5032869;28;19924;-77
2023/05/04 08:39:18;;;;;;;;;;;;;;;13.28;60.76;101105.19;5032968;28;19924;-77
2023/05/04 08:42:31;;;;;;;;;;;;;;;13.37;60.65;101099.41;5032822;28;19924;-75
2023/05/04 08:45:38;;;;;;;;;;;;;;;13.39;60.36;101094.94;5031143;28;19928;-75
2023/05/04 08:48:45;;;;;;;;;;;;;;;13.57;60.00;101101.81;5032050;28;20399;-78
2023/05/04 08:51:49;;;;;;;;;;;;;;;13.62;59.25;101093.66;5032432;28;19971;-75
2023/05/04 08:54:54;;;;;;;;;;;;;;;13.85;59.58;101087.13;5032391;28;19924;-74
2023/05/04 08:57:58;;;;;;;;;;;;;;;13.90;59.26;101087.69;5032293;28;20013;-74
2023/05/04 09:01:03;;;;;;;;;;;;;;;14.01;57.68;101081.81;5032114;28;19944;-76
2023/05/04 09:04:07;;;;;;;;;;;;;;;14.05;57.74;101078.94;5019806;28;20002;-74
2023/05/04 09:07:10;;;;;;;;;;;;;;;14.06;58.12;101075.34;5031736;28;20004;-70
2023/05/04 09:10:13;;;;;;;;;;;;;;;14.17;59.07;101078.22;5032293;28;19963;-69
2023/05/04 09:13:17;;;;;;;;;;;;;;;14.30;59.00;101070.47;5032058;28;19956;-81
2023/05/04 09:16:21;;;;;;;;;;;;;;;14.46;59.04;101070.38;5030633;28;19982;-79
2023/05/04 09:19:25;;;;;;;;;;;;;;;14.58;58.84;101067.06;5030922;28;19924;-82
2023/05/04 09:22:28;;;;;;;;;;;;;;;15.15;56.46;101057.44;5030530;28;19924;-78
2023/05/04 09:25:33;;;;;;;;;;;;;;;15.23;56.14;101057.81;5030410;28;20320;-79
2023/05/04 09:28:38;;;;;;;;;;;;;;;15.62;55.86;101061.47;5030419;28;20058;-77
2023/05/04 09:31:44;;;;;;;;;;;;;;;15.64;54.64;101052.53;5031863;28;19924;-78
2023/05/04 09:34:49;;;;;;;;;;;;;;;15.68;54.98;101051.41;5032025;28;19924;-78
2023/05/04 09:37:52;;;;;;;;;;;;;;;15.82;54.13;101042.56;5031723;28;19997;-75
2023/05/04 09:40:55;;;;;;;;;;;;;;;16.15;53.78;101043.94;5031666;28;19927;-73
2023/05/04 09:43:58;;;;;;;;;;;;;;;16.26;53.01;101046.69;5031701;28;19924;-81
2023/05/04 09:47:01;;;;;;;;;;;;;;;16.45;51.59;101035.72;5031547;28;19924;-76
2023/05/04 09:50:10;;;;;;;;;;;;;;;16.47;48.81;101034.66;5031537;28;19940;-72
2023/05/04 09:53:14;;;;;;;;;;;;;;;16.65;48.58;101026.41;5031473;28;19943;-71
2023/05/04 09:56:21;;;;;;;;;;;;;;;16.67;49.26;101027.16;5031445;28;19924;-71
2023/05/04 09:59:30;;;;;;;;;;;;;;;16.72;47.54;101028.53;5031219;28;20330;-72
2023/05/04 10:02:33;;;;;;;;;;;;;;;16.66;46.59;101020.19;5031406;28;20292;-72
2023/05/04 10:05:37;;;;;;;;;;;;;;;16.54;45.13;101006.03;5031241;28;20488;-72
2023/05/04 10:08:40;;;;;;;;;;;;;;;16.65;45.86;101010.56;5031321;28;20399;-71
2023/05/04 10:11:44;;;;;;;;;;;;;;;16.58;42.98;100996.09;5031451;28;20004;-72
2023/05/04 10:14:47;;;;;;;;;;;;;;;16.96;42.60;100994.25;5031185;28;19973;-71
2023/05/04 10:18:09;;;;;;;;;;;;;;;16.70;40.77;100985.53;5031127;28;19939;-71
2023/05/04 10:21:24;;;;;;;;;;;;;;;16.86;39.33;100977.41;5031025;28;19928;-72
2023/05/04 10:24:52;;;;;;;;;;;;;;;17.11;39.01;100984.41;5030855;28;19944;-70
2023/05/04 10:28:07;;;;;;;;;;;;;;;17.12;37.72;100972.88;5030927;28;19969;-70
2023/05/04 10:31:10;;;;;;;;;;;;;;;17.13;36.66;100971.06;5031202;28;20338;-70
2023/05/04 10:34:24;;;;;;;;;;;;;;;17.30;35.06;100962.75;5030854;28;20460;-70
2023/05/04 10:37:28;;;;;;;;;;;;;;;17.24;35.65;100957.94;5030772;28;20016;-71
2023/05/04 10:40:42;;;;;;;;;;;;;;;17.17;35.01;100951.41;5031059;28;19932;-71
2023/05/04 10:43:49;;;;;;;;;;;;;;;17.26;34.15;100939.31;5018931;28;19924;-71
2023/05/04 10:47:04;;;;;;;;;;;;;;;17.33;35.18;100937.91;5030725;28;19947;-71
2023/05/04 10:50:08;;;;;;;;;;;;;;;17.37;35.38;100926.16;5030954;28;19970;-72
2023/05/04 10:53:12;;;;;;;;;;;;;;;17.65;34.98;100922.28;5030622;28;20330;-71
2023/05/04 10:56:25;;;;;;;;;;;;;;;17.99;36.10;100911.78;5030027;28;20012;-71
2023/05/04 10:59:29;;;;;;;;;;;;;;;17.71;35.13;100905.94;5030408;28;20289;-71
2023/05/04 11:02:33;;;;;;;;;;;;;;;17.76;36.10;100898.50;5030484;28;19928;-70
2023/05/04 11:05:42;;;;;;;;;;;;;;;17.73;35.56;100893.44;5030322;28;19928;-71
2023/05/04 11:08:49;;;;;;;;;;;;;;;17.55;36.45;100900.13;5030417;28;19929;-70
2023/05/04 11:11:52;;;;;;;;;;;;;;;17.59;36.49;100885.72;5030375;28;20012;-71
2023/05/04 11:15:15;;;;;;;;;;;;;;;17.82;36.46;100887.47;5030354;28;19924;-71
2023/05/04 11:18:25;;;;;;;;;;;;;;;18.05;36.93;100882.22;5030183;28;19926;-70
2023/05/04 11:21:28;;;;;;;;;;;;;;;18.38;36.83;100875.22;5030134;28;19969;-70
2023/05/04 11:24:38;;;;;;;;;;;;;;;18.19;36.09;100873.19;5030066;28;19940;-71
2023/05/04 11:27:42;;;;;;;;;;;;;;;18.35;36.40;100879.81;5030114;28;19924;-70
2023/05/04 11:30:46;;;;;;;;;;;;;;;18.30;39.40;100879.31;5030182;28;20305;-70
2023/05/04 11:33:51;;;;;;;;;;;;;;;18.50;38.79;100869.78;5030031;28;20449;-73
2023/05/04 11:36:54;;;;;;;;;;;;;;;18.92;35.99;100866.47;5030099;28;19924;-72
2023/05/04 11:39:58;;;;;;;;;;;;;;;19.00;36.93;100858.72;5030295;28;19924;-73
2023/05/04 11:43:02;;;;;;;;;;;;;;;18.67;34.19;100851.72;5030197;28;19924;-72
2023/05/04 11:46:05;;;;;;;;;;;;;;;18.59;34.98;100849.66;5029859;28;19929;-72
2023/05/04 11:49:08;;;;;;;;;;;;;;;18.61;35.43;100855.69;5017991;28;20284;-72
2023/05/04 11:52:12;;;;;;;;;;;;;;;18.64;34.87;100850.16;5029572;28;20024;-73
2023/05/04 11:55:29;;;;;;;;;;;;;;;18.86;35.07;100845.75;5029846;28;20009;-73
2023/05/04 11:58:32;;;;;;;;;;;;;;;19.05;35.65;100835.34;5029713;28;19943;-72
2023/05/04 12:01:36;;;;;;;;;;;;;;;19.08;34.62;100835.09;5029070;28;20296;-73
2023/05/04 12:04:38;;;;;;;;;;;;;;;18.99;34.85;100825.25;5029599;28;20018;-72
2023/05/04 12:07:42;;;;;;;;;;;;;;;19.19;35.75;100813.00;5029621;28;19982;-72
2023/05/04 12:10:45;;;;;;;;;;;;;;;19.15;35.66;100815.06;5033387;28;19936;-72
2023/05/04 12:13:48;;;;;;;;;;;;;;;19.52;35.91;100823.38;5032968;28;20296;-73
2023/05/04 12:16:56;;;;;;;;;;;;;;;19.89;35.96;100819.44;5032795;28;20007;-72
2023/05/04 12:19:59;;;;;;;;;;;;;;;19.84;35.71;100805.69;5031175;28;19924;-72
2023/05/04 12:23:05;;;;;;;;;;;;;;;19.74;36.67;100803.84;5033776;28;19924;-72
2023/05/04 12:26:09;;;;;;;;;;;;;;;19.90;35.69;100798.03;5032722;28;19928;-75
2023/05/04 12:29:12;;;;;;;;;;;;;;;19.84;36.02;100800.41;5033133;28;19927;-73
2023/05/04 12:32:15;;;;;;;;;;;;;;;20.20;36.51;100797.19;5032758;28;19970;-74
2023/05/04 12:35:18;;;;;;;;;;;;;;;20.15;34.98;100798.56;5032656;28;20384;-74
2023/05/04 12:38:21;;;;;;;;;;;;;;;20.18;35.91;100792.97;5032174;28;19924;-73
2023/05/04 12:41:24;;;;;;;;;;;;;;;20.41;35.11;100785.63;5031881;28;20019;-74
2023/05/04 12:44:27;;;;;;;;;;;;;;;20.52;34.61;100777.56;5031282;28;19931;-74
2023/05/04 12:47:30;;;;;;;;;;;;;;;20.98;34.77;100775.19;5032041;28;19928;-72
2023/05/04 12:50:33;;;;;;;;;;;;;;;20.99;34.35;100784.81;5031769;28;19923;-74
2023/05/04 12:53:36;;;;;;;;;;;;;;;20.88;33.62;100781.34;5018127;28;19923;-74
2023/05/04 12:56:39;;;;;;;;;;;;;;;21.10;33.33;100772.22;5030639;28;19963;-75
2023/05/04 12:59:42;;;;;;;;;;;;;;;21.11;33.06;100771.25;5030624;28;20308;-75
2023/05/04 13:02:45;;;;;;;;;;;;;;;21.20;33.70;100763.41;5031967;28;19970;-74
2023/05/04 13:05:48;;;;;;;;;;;;;;;21.45;32.56;100762.81;5032064;28;19927;-74
2023/05/04 13:08:52;;;;;;;;;;;;;;;21.56;31.53;100754.63;5032178;28;20026;-73
2023/05/04 13:11:55;;;;;;;;;;;;;;;21.41;31.45;100749.91;5032166;28;19963;-74
2023/05/04 13:14:58;;;;;;;;;;;;;;;21.78;32.95;100749.94;5032091;28;19976;-79
2023/05/04 13:18:01;;;;;;;;;;;;;;;22.18;31.60;100738.13;5032069;28;20037;-79
2023/05/04 13:21:04;;;;;;;;;;;;;;;22.43;32.93;100723.19;5031480;28;19982;-78
2023/05/04 13:24:07;;;;;;;;;;;;;;;22.56;33.86;100728.13;5031766;28;19962;-76
2023/05/04 13:27:11;;;;;;;;;;;;;;;22.54;32.09;100722.16;5031889;28;19924;-79
2023/05/04 13:30:14;;;;;;;;;;;;;;;22.97;32.47;100714.19;5032115;28;19928;-78
2023/05/04 13:33:17;;;;;;;;;;;;;;;22.67;30.77;100717.25;5032010;28;19969;-76
2023/05/04 13:36:20;;;;;;;;;;;;;;;23.21;30.41;100718.84;5031638;28;19967;-76
2023/05/04 13:39:24;;;;;;;;;;;;;;;23.60;30.98;100706.88;5031742;28;19970;-78
2023/05/04 13:42:28;;;;;;;;;;;;;;;23.61;30.47;100708.53;5019720;28;20418;-79
2023/05/04 13:45:31;;;;;;;;;;;;;;;23.90;29.37;100708.19;5031502;28;19971;-78
2023/05/04 13:48:35;;;;;;;;;;;;;;;24.29;29.10;100703.09;5031635;28;19924;-84
2023/05/04 13:51:39;;;;;;;;;;;;;;;24.36;29.13;100700.59;5019402;28;19970;-82
2023/05/04 13:54:48;;;;;;;;;;;;;;;24.88;30.17;100680.72;5019310;28;19928;-83
2023/05/04 14:21:53;;;;;;;;;;;;;;;33.81;17.87;100633.81;4991803;28;19928;-85
2023/05/04 14:29:27;;;;;;;;;;;;;;;31.71;18.66;100624.56;4972318;28;19956;-85
2023/05/04 14:42:25;;;;;;;;;;;;;;;34.39;17.30;100608.69;4972465;28;19964;-88
2023/05/04 14:45:55;;;;;;;;;;;;;;;33.45;18.80;100613.84;4970771;28;19929;-83
2023/05/04 14:48:59;;;;;;;;;;;;;;;33.35;19.80;100619.00;4972178;28;20014;-73
2023/05/04 14:52:02;;;;;;;;;;;;;;;29.29;21.46;100621.47;4971922;28;19971;-72
2023/05/04 14:55:05;;;;;;;;;;;;;;;30.30;21.48;100617.00;4972007;28;20548;-70
2023/05/04 14:58:09;;;;;;;;;;;;;;;30.61;23.17;100604.75;4972201;28;20052;-73
2023/05/04 15:01:12;;;;;;;;;;;;;;;30.24;22.39;100612.44;4971879;28;19971;-72
2023/05/04 15:04:15;;;;;;;;;;;;;;;31.06;20.48;100602.19;4971827;28;20388;-70
2023/05/04 15:07:19;;;;;;;;;;;;;;;31.21;21.06;100596.53;4971737;28;20389;-68
2023/05/04 15:10:23;;;;;;;;;;;;;;;31.71;20.81;100578.59;4971709;28;20290;-71
2023/05/04 15:13:26;;;;;;;;;;;;;;;32.98;19.76;100580.25;4971899;28;20025;-69
2023/05/04 15:16:31;;;;;;;;;;;;;;;31.79;20.50;100584.81;4971534;28;19929;-72
2023/05/04 15:19:38;;;;;;;;;;;;;;;32.42;19.54;100573.94;4971619;28;20014;-72
2023/05/04 15:22:42;;;;;;;;;;;;;;;32.68;19.12;100569.34;4971572;28;20352;-72
2023/05/04 15:25:45;;;;;;;;;;;;;;;32.35;21.36;100570.44;4952131;28;20026;-73
2023/05/04 15:28:48;;;;;;;;;;;;;;;32.53;19.70;100567.81;4952113;28;20373;-73
2023/05/04 15:31:51;;;;;;;;;;;;;;;32.76;19.96;100560.91;4952312;28;19986;-73
2023/05/04 15:34:55;;;;;;;;;;;;;;;31.43;20.08;100551.13;4951703;28;20014;-73
2023/05/04 15:37:58;;;;;;;;;;;;;;;31.81;20.51;100545.66;4952079;28;19984;-73
2023/05/04 15:41:02;;;;;;;;;;;;;;;31.22;19.87;100536.88;4952369;28;19926;-74
2023/05/04 15:44:05;;;;;;;;;;;;;;;31.24;20.85;100542.91;4955061;29;20009;-75
2023/05/04 15:47:11;;;;;;;;;;;;;;;30.99;21.63;100533.88;4955727;28;19941;-72
2023/05/04 15:50:14;;;;;;;;;;;;;;;30.32;20.98;100533.19;4955329;28;20008;-73
2023/05/04 15:53:17;;;;;;;;;;;;;;;29.84;22.28;100534.22;4955644;28;19925;-72
2023/05/04 15:56:21;;;;;;;;;;;;;;;30.03;22.41;100537.13;4955265;28;19944;-72
2023/05/04 15:59:24;;;;;;;;;;;;;;;31.34;21.59;100537.06;4955252;28;19930;-72
2023/05/04 16:02:28;;;;;;;;;;;;;;;30.96;21.24;100531.59;4955193;28;19972;-71
2023/05/04 16:05:31;;;;;;;;;;;;;;;30.50;21.47;100533.34;4955107;28;19929;-72
2023/05/04 16:08:35;;;;;;;;;;;;;;;29.79;22.40;100531.28;4955108;28;19933;-72
2023/05/04 16:11:39;;;;;;;;;;;;;;;29.92;23.54;100522.38;4955100;28;20389;-72
2023/05/04 16:14:41;;;;;;;;;;;;;;;29.30;24.93;100524.34;4954827;28;20458;-72
2023/05/04 16:17:44;;;;;;;;;;;;;;;26.79;25.89;100513.94;4954514;28;20014;-72
2023/05/04 16:20:47;;;;;;;;;;;;;;;27.80;25.41;100514.91;4954889;28;19929;-73
2023/05/04 16:23:50;;;;;;;;;;;;;;;26.73;26.02;100505.81;4955006;28;19925;-72
2023/05/04 16:26:57;;;;;;;;;;;;;;;26.00;28.13;100500.16;4954129;28;20337;-72
2023/05/04 16:30:02;;;;;;;;;;;;;;;25.34;28.72;100490.97;4954762;28;19941;-73
2023/05/04 16:33:06;;;;;;;;;;;;;;;25.32;29.75;100496.47;4953860;28;19925;-73
2023/05/04 16:36:10;;;;;;;;;;;;;;;25.22;29.50;100493.19;4954364;28;20294;-73
2023/05/04 16:39:13;;;;;;;;;;;;;;;25.13;30.34;100495.09;4954272;29;19972;-72